Coldwater, Canada
Current Conditions -  °F | °C
As of 3:34 AM on Saturday 01 Nov 2014 (Local Time) from CYQA Reporting Station
Overcast Overcast  
Wind Chill: 23°   Ceiling: 6000
Heat Index: 30°   Visibility: 9mi
Dew Point: 28°   Wind: 7mph
Humidity: 93%   Direction: 350°N
Pressure: 30.12"   Gusts: NA
Location:  44.71°N, 79.64°W
Report Text: CYQA 010734Z AUTO 35006KT 320V030 9SM FEW012 BKN060 OVC120 M01/M02 A3012 RMK SLP213
Loading
Personal Weather Stations






























Interactive Weather Map
Tropical Storm Tracking
New forecast layout! Learn more

10-Day Weather Forecast

Advertisements
Track Severe Weather on mobile